Ponderosa, North Carolina
Current Conditions -  °F | °C
As of 4:58 PM on Saturday 25 Oct 2014 (Local Time) from KPOB Reporting Station
Clear Clear  
Wind Chill: 72°   Ceiling: Unl
Heat Index: 72°   Visibility: 10mi
Dew Point: 42°   Wind: 7mph
Humidity: 34%   Direction: 250°WSW
Pressure: 29.91"   Gusts: NA
Location:  35.0916°N, 79.0106°W
Report Text: KPOB 252058Z AUTO 25006KT 10SM CLR 22/06 A2991 RMK AO2 SLP131 T02220058 57014
Loading
Personal Weather Stations






























Interactive Weather Map
Tropical Storm Tracking
New forecast layout! Learn more

10-Day Weather Forecast

Advertisements
Track Severe Weather on mobile